createdAt,value
2022-09-22T00:03:01.683Z,102376.03
2022-09-22T00:08:23.299Z,102375.44
2022-09-22T00:13:47.902Z,102370.94
2022-09-22T00:19:13.440Z,102368.59
2022-09-22T00:24:35.097Z,102369.03
2022-09-22T00:29:56.735Z,102362.41
2022-09-22T00:35:18.393Z,102360.06
2022-09-22T00:40:40.158Z,102360.31
2022-09-22T00:46:13.555Z,102354.97
2022-09-22T00:51:38.379Z,102356.06
2022-09-22T00:57:18.136Z,102353.28
2022-09-22T01:02:40.242Z,102344.47
2022-09-22T01:08:02.573Z,102338.06
2022-09-22T01:13:33.144Z,102328.03
2022-09-22T01:19:29.502Z,102324.41
2022-09-22T01:24:56.866Z,102324.00
2022-09-22T01:30:18.520Z,102312.03
2022-09-22T01:36:17.727Z,102314.81
2022-09-22T01:41:52.041Z,102326.38
2022-09-22T01:47:24.524Z,102310.78
2022-09-22T01:52:48.352Z,102312.91
2022-09-22T01:58:20.432Z,102304.56
2022-09-22T02:03:45.119Z,102307.84
2022-09-22T02:09:10.776Z,102296.72
2022-09-22T02:14:32.621Z,102298.00
2022-09-22T02:19:54.430Z,102293.53
2022-09-22T02:25:16.201Z,102290.75
2022-09-22T02:30:38.093Z,102281.78
2022-09-22T02:36:12.550Z,102270.66
2022-09-22T02:41:37.054Z,102270.88
2022-09-22T02:47:06.278Z,102257.22
2022-09-22T02:52:27.935Z,102262.16
2022-09-22T02:57:49.615Z,102254.03
2022-09-22T03:03:12.161Z,102257.03
2022-09-22T03:08:33.938Z,102257.91
2022-09-22T03:13:55.602Z,102254.25
2022-09-22T03:19:17.240Z,102255.31
2022-09-22T03:24:38.977Z,102251.94
2022-09-22T03:30:00.658Z,102253.03
2022-09-22T03:35:22.391Z,102247.66
2022-09-22T03:40:51.115Z,102239.31
2022-09-22T03:46:14.437Z,102235.09
2022-09-22T03:51:36.149Z,102239.81
2022-09-22T03:57:00.789Z,102237.22
2022-09-22T04:02:22.582Z,102240.00
2022-09-22T04:07:45.182Z,102231.03
2022-09-22T04:13:06.836Z,102227.66
2022-09-22T04:18:29.708Z,102233.22
2022-09-22T04:23:51.436Z,102221.25
2022-09-22T04:29:13.048Z,102236.44
2022-09-22T04:34:34.707Z,102226.41
2022-09-22T04:39:56.364Z,102228.31
2022-09-22T04:45:18.718Z,102224.94
2022-09-22T04:50:44.492Z,102221.28
2022-09-22T04:56:08.957Z,102228.16
2022-09-22T05:01:30.703Z,102229.88
2022-09-22T05:06:52.445Z,102229.22
2022-09-22T05:12:14.105Z,102228.16
2022-09-22T05:17:36.421Z,102228.16
2022-09-22T05:22:58.126Z,102236.50
2022-09-22T05:28:21.414Z,102240.13
2022-09-22T05:33:43.141Z,102238.41
2022-09-22T05:39:05.028Z,102235.63
2022-09-22T05:44:26.850Z,102237.56
2022-09-22T05:49:48.567Z,102243.25
2022-09-22T05:55:11.563Z,102252.34
2022-09-22T06:00:33.276Z,102251.59
2022-09-22T06:05:54.955Z,102248.31
2022-09-22T06:11:16.612Z,102244.59
2022-09-22T06:16:38.293Z,102243.94
2022-09-22T06:22:00.171Z,102243.25
2022-09-22T06:27:21.816Z,102237.88
2022-09-22T06:32:44.028Z,102243.34
2022-09-22T06:38:07.468Z,102244.13
2022-09-22T06:43:29.111Z,102238.50
2022-09-22T06:48:51.625Z,102244.84
2022-09-22T06:54:13.519Z,102247.78
2022-09-22T06:59:39.194Z,102234.03
2022-09-22T07:05:00.811Z,102242.50
2022-09-22T07:10:22.454Z,102239.88
2022-09-22T07:15:44.934Z,102235.56
2022-09-22T07:21:12.409Z,102231.81
2022-09-22T07:26:36.900Z,102236.31
2022-09-22T07:31:59.589Z,102239.75
2022-09-22T07:37:21.308Z,102245.31
2022-09-22T07:42:48.081Z,102246.38
2022-09-22T07:48:27.931Z,102242.72
2022-09-22T07:54:03.309Z,102237.59
2022-09-22T07:59:25.829Z,102231.53
2022-09-22T08:04:47.481Z,102227.19
2022-09-22T08:10:10.988Z,102225.03
2022-09-22T08:15:32.637Z,102222.25
2022-09-22T08:20:54.346Z,102214.72
2022-09-22T08:26:15.993Z,102210.03
2022-09-22T08:31:41.627Z,102213.66
2022-09-22T08:37:03.382Z,102222.00
2022-09-22T08:42:28.604Z,102215.81
2022-09-22T08:48:16.190Z,102218.59
2022-09-22T08:53:47.805Z,102224.16
2022-09-22T08:59:23.198Z,102226.34
2022-09-22T09:05:27.698Z,102225.97
2022-09-22T09:10:59.314Z,102226.44
2022-09-22T09:16:56.543Z,102223.22
2022-09-22T09:22:22.967Z,102218.16
2022-09-22T09:27:50.364Z,102223.47
2022-09-22T09:33:23.861Z,102214.88
2022-09-22T09:38:52.238Z,102216.19
2022-09-22T09:44:23.741Z,102205.31
2022-09-22T09:49:46.444Z,102206.03
2022-09-22T09:55:27.200Z,102211.59
2022-09-22T10:01:00.643Z,102208.03
2022-09-22T10:06:26.621Z,102201.94
2022-09-22T10:11:58.351Z,102187.88
2022-09-22T10:17:29.154Z,102194.75
2022-09-22T10:22:50.831Z,102184.72
2022-09-22T10:28:16.350Z,102183.00
2022-09-22T10:33:53.947Z,102178.53
2022-09-22T10:39:18.812Z,102168.63
2022-09-22T10:44:45.208Z,102164.28
2022-09-22T10:50:51.135Z,102165.53
2022-09-22T10:56:34.173Z,102164.91
2022-09-22T11:02:25.805Z,102162.28
2022-09-22T11:08:17.587Z,102147.88
2022-09-22T11:13:48.996Z,102147.78
2022-09-22T11:19:32.326Z,102140.41
2022-09-22T11:25:13.342Z,102139.94
2022-09-22T11:30:47.402Z,102129.44
2022-09-22T11:36:18.233Z,102113.81
2022-09-22T11:42:17.981Z,102115.50
2022-09-22T11:47:54.523Z,102112.97
2022-09-22T11:53:25.049Z,102106.53
2022-09-22T11:58:47.795Z,102097.56
2022-09-22T12:04:27.095Z,102104.84
2022-09-22T12:09:56.419Z,102095.41
2022-09-22T12:15:29.337Z,102079.78
2022-09-22T12:21:05.555Z,102063.44
2022-09-22T12:26:45.194Z,102063.28
2022-09-22T12:32:23.848Z,102051.53
2022-09-22T12:37:45.732Z,102049.00
2022-09-22T12:43:18.075Z,102035.69
2022-09-22T12:48:39.869Z,102043.56
2022-09-22T12:54:23.119Z,102028.31
2022-09-22T12:59:57.329Z,102030.13
2022-09-22T13:05:24.806Z,102036.69
2022-09-22T13:10:57.983Z,102031.28
2022-09-22T13:16:19.617Z,102021.13
2022-09-22T13:21:41.974Z,102017.00
2022-09-22T13:27:04.898Z,102005.66
2022-09-22T13:32:28.598Z,101999.84
2022-09-22T13:37:50.463Z,102001.38
2022-09-22T13:43:12.453Z,101998.84
2022-09-22T13:48:37.630Z,101984.31
2022-09-22T13:53:59.387Z,101973.19
2022-09-22T13:59:21.805Z,101967.63
2022-09-22T14:04:52.494Z,101959.88
2022-09-22T14:10:19.642Z,101961.56
2022-09-22T14:15:43.937Z,101959.88
2022-09-22T14:21:09.688Z,101967.13
2022-09-22T14:26:39.158Z,101948.25
2022-09-22T14:32:22.452Z,101936.88
2022-09-22T14:37:48.915Z,101944.38
2022-09-22T14:43:42.469Z,101936.88
2022-09-22T14:49:43.659Z,101927.44
2022-09-22T14:55:14.700Z,101919.31
2022-09-22T15:00:55.329Z,101921.75
2022-09-22T15:06:17.263Z,101919.19
2022-09-22T15:11:54.852Z,101909.75
2022-09-22T15:17:55.839Z,101916.06
2022-09-22T15:23:21.347Z,101903.69
2022-09-22T15:28:43.660Z,101912.75
2022-09-22T15:34:06.676Z,101908.78
2022-09-22T15:39:28.341Z,101906.69
2022-09-22T15:44:52.677Z,101905.84
2022-09-22T15:50:21.324Z,101904.75
2022-09-22T15:55:43.109Z,101902.19
2022-09-22T16:01:05.855Z,101900.91
2022-09-22T16:06:27.966Z,101900.91
2022-09-22T16:11:49.784Z,101899.19
2022-09-22T16:17:11.474Z,101900.03
2022-09-22T16:22:34.097Z,101892.53
2022-09-22T16:27:55.708Z,101878.63
2022-09-22T16:33:17.632Z,101876.47
2022-09-22T16:38:39.670Z,101870.38
2022-09-22T16:44:02.675Z,101871.16
2022-09-22T16:49:25.718Z,101866.91
2022-09-22T16:54:47.446Z,101862.91
2022-09-22T17:00:11.766Z,101861.31
2022-09-22T17:05:33.622Z,101862.28
2022-09-22T17:10:55.970Z,101860.19
2022-09-22T17:16:34.891Z,101861.50
2022-09-22T17:21:56.995Z,101857.97
2022-09-22T17:27:18.873Z,101854.44
2022-09-22T17:32:40.618Z,101849.47
2022-09-22T17:38:02.583Z,101857.84
2022-09-22T17:43:24.432Z,101852.78
2022-09-22T17:49:04.973Z,101848.78
2022-09-22T17:54:56.448Z,101859.81
2022-09-22T18:00:21.405Z,101857.41
2022-09-22T18:05:44.003Z,101855.09
2022-09-22T18:11:05.665Z,101844.47
2022-09-22T18:16:33.291Z,101847.75
2022-09-22T18:21:55.717Z,101839.88
2022-09-22T18:27:19.722Z,101840.38
2022-09-22T18:32:41.589Z,101834.19
2022-09-22T18:38:03.389Z,101836.41
2022-09-22T18:43:25.133Z,101845.84
2022-09-22T18:48:48.763Z,101848.84
2022-09-22T18:54:15.302Z,101854.06
2022-09-22T18:59:37.155Z,101853.22
2022-09-22T19:04:58.799Z,101860.13
2022-09-22T19:10:21.953Z,101853.72
2022-09-22T19:15:44.155Z,101851.41
2022-09-22T19:21:06.043Z,101847.78
2022-09-22T19:26:28.980Z,101855.06
2022-09-22T19:31:50.732Z,101857.84
2022-09-22T19:37:12.501Z,101863.16
2022-09-22T19:42:40.104Z,101847.28
2022-09-22T19:48:02.547Z,101851.75
2022-09-22T19:53:24.279Z,101848.16
2022-09-22T19:58:46.203Z,101846.19
2022-09-22T20:04:14.490Z,101843.41
2022-09-22T20:09:36.538Z,101842.56
2022-09-22T20:14:58.176Z,101837.25
2022-09-22T20:20:25.355Z,101825.00
2022-09-22T20:25:47.479Z,101829.75
2022-09-22T20:31:11.999Z,101817.78
2022-09-22T20:36:37.032Z,101823.56
2022-09-22T20:41:59.943Z,101825.53
2022-09-22T20:47:26.137Z,101814.38
2022-09-22T20:52:48.136Z,101809.25
2022-09-22T20:58:12.821Z,101811.91
2022-09-22T21:03:35.510Z,101813.53
2022-09-22T21:09:15.634Z,101797.56
2022-09-22T21:14:37.304Z,101799.94
2022-09-22T21:19:59.020Z,101801.28
2022-09-22T21:25:20.849Z,101785.34
2022-09-22T21:30:42.576Z,101786.69
2022-09-22T21:36:08.723Z,101781.34
2022-09-22T21:41:34.126Z,101780.72
2022-09-22T21:46:55.652Z,101775.06
2022-09-22T21:52:17.581Z,101773.09
2022-09-22T21:57:39.207Z,101765.50
2022-09-22T22:03:32.813Z,101764.88
2022-09-22T22:09:01.068Z,101763.19
2022-09-22T22:14:24.770Z,101764.19
2022-09-22T22:19:47.624Z,101759.69
2022-09-22T22:25:18.540Z,101753.53
2022-09-22T22:30:41.091Z,101756.31
2022-09-22T22:36:04.681Z,101756.31
2022-09-22T22:41:26.403Z,101749.91
2022-09-22T22:46:48.269Z,101745.19
2022-09-22T22:52:09.906Z,101738.44
2022-09-22T22:57:31.555Z,101731.16
2022-09-22T23:02:53.236Z,101727.78
2022-09-22T23:08:14.871Z,101727.03
2022-09-22T23:13:36.523Z,101727.41
2022-09-22T23:19:01.468Z,101724.63
2022-09-22T23:24:23.124Z,101725.47
2022-09-22T23:29:44.766Z,101719.91
2022-09-22T23:35:06.906Z,101713.50
2022-09-22T23:40:30.432Z,101703.44
2022-09-22T23:45:53.175Z,101703.09
2022-09-22T23:51:14.906Z,101697.78
2022-09-22T23:56:37.188Z,101688.94
